createdAt,value
2018-03-18T00:00:07.744Z,53.80
2018-03-18T00:02:36.770Z,53.20
2018-03-18T00:05:05.029Z,53.70
2018-03-18T00:07:33.424Z,53.40
2018-03-18T00:10:01.219Z,53.40
2018-03-18T00:12:30.388Z,52.60
2018-03-18T00:14:58.461Z,52.50
2018-03-18T00:17:26.505Z,52.30
2018-03-18T00:19:54.600Z,52.90
2018-03-18T00:22:22.464Z,52.10
2018-03-18T00:24:50.334Z,52.30
2018-03-18T00:27:18.406Z,52.60
2018-03-18T00:29:46.435Z,52.20
2018-03-18T00:32:14.344Z,52.50
2018-03-18T00:34:42.409Z,52.60
2018-03-18T00:37:10.485Z,52.10
2018-03-18T00:39:38.624Z,52.10
2018-03-18T00:42:07.035Z,52.00
2018-03-18T00:44:34.904Z,52.50
2018-03-18T00:47:04.511Z,51.90
2018-03-18T15:20:04.819Z,28.10
2018-03-18T15:22:33.971Z,28.00
2018-03-18T15:25:01.971Z,28.10
2018-03-18T15:27:30.195Z,28.30
2018-03-18T15:30:00.927Z,28.20
2018-03-18T15:32:32.483Z,29.70
2018-03-18T15:35:00.542Z,29.60
2018-03-18T15:37:29.380Z,29.10
2018-03-18T15:39:57.441Z,29.40
2018-03-18T15:42:27.763Z,28.60
2018-03-18T15:44:57.554Z,28.80
2018-03-18T15:47:25.874Z,28.80
2018-03-18T15:49:55.443Z,29.00
2018-03-18T15:52:30.325Z,30.00
2018-03-18T15:54:58.977Z,29.20
2018-03-18T15:57:29.042Z,29.20
2018-03-18T16:00:00.051Z,29.30
2018-03-18T16:02:30.100Z,29.60
2018-03-18T16:05:00.755Z,30.30
2018-03-18T16:07:29.299Z,30.00
2018-03-18T16:09:59.580Z,30.90
2018-03-18T16:12:30.178Z,30.70
2018-03-18T16:14:59.155Z,30.80
2018-03-18T16:17:28.967Z,31.10
2018-03-18T16:19:59.635Z,32.20
2018-03-18T16:22:32.202Z,32.00
2018-03-18T16:25:03.456Z,32.30
2018-03-18T16:27:32.145Z,32.30
2018-03-18T16:30:13.067Z,32.60
2018-03-18T16:32:42.642Z,32.50
2018-03-18T16:35:11.531Z,32.30
2018-03-18T16:37:39.899Z,32.40
2018-03-18T16:40:08.649Z,33.00
2018-03-18T16:42:36.651Z,32.80
2018-03-18T16:45:05.422Z,31.90
2018-03-18T16:47:34.939Z,32.70
2018-03-18T16:50:02.762Z,33.20
2018-03-18T16:52:30.652Z,33.60
2018-03-18T16:54:58.955Z,34.00
2018-03-18T16:57:28.158Z,34.10
2018-03-18T16:59:56.940Z,34.90
2018-03-18T17:02:24.898Z,34.80
2018-03-18T17:05:01.588Z,34.90
2018-03-18T17:07:29.762Z,34.10
2018-03-18T17:09:58.674Z,35.30
2018-03-18T17:12:27.411Z,34.40
2018-03-18T17:14:55.382Z,34.40
2018-03-18T17:17:23.611Z,35.00
2018-03-18T17:19:51.770Z,35.60
2018-03-18T17:22:20.731Z,35.00
2018-03-18T17:24:49.035Z,34.80
2018-03-18T17:27:18.202Z,34.60
2018-03-18T17:29:46.109Z,34.40
2018-03-18T17:32:15.081Z,36.00
2018-03-18T17:34:43.883Z,36.70
2018-03-18T17:37:12.538Z,35.30
2018-03-18T17:39:40.717Z,35.20
2018-03-18T17:42:09.098Z,35.40
2018-03-18T17:44:48.978Z,35.90
2018-03-18T17:47:29.596Z,35.70
2018-03-18T17:50:09.562Z,35.70
2018-03-18T17:52:49.722Z,36.20
2018-03-18T17:55:31.931Z,36.40
2018-03-18T17:58:00.794Z,36.40
2018-03-18T18:00:28.834Z,36.30
2018-03-18T18:02:56.770Z,36.60
2018-03-18T18:05:25.618Z,36.70
2018-03-18T18:07:53.794Z,36.70
2018-03-18T18:10:22.098Z,36.40
2018-03-18T18:12:51.282Z,37.60
2018-03-18T18:15:19.394Z,37.60
2018-03-18T18:17:47.542Z,36.90
2018-03-18T18:20:16.914Z,37.70
2018-03-18T18:22:44.978Z,37.60
2018-03-18T18:25:13.874Z,37.30
2018-03-18T18:27:41.842Z,37.30
2018-03-18T18:30:09.811Z,36.70
2018-03-18T18:32:37.843Z,37.70
2018-03-18T18:35:08.278Z,37.90
2018-03-18T18:37:36.530Z,37.80
2018-03-18T18:40:05.063Z,38.00
2018-03-18T18:42:33.410Z,37.80
2018-03-18T18:45:01.459Z,38.60
2018-03-18T18:47:30.418Z,37.80
2018-03-18T18:49:58.691Z,37.80
2018-03-18T18:52:26.812Z,38.10
2018-03-18T18:54:54.978Z,38.10
2018-03-18T18:57:23.555Z,38.00
2018-03-18T18:59:51.843Z,38.20
2018-03-18T19:02:19.954Z,38.30
2018-03-18T19:04:48.130Z,38.10
2018-03-18T19:07:16.258Z,38.20
2018-03-18T19:09:44.483Z,37.80
2018-03-18T19:12:13.123Z,38.60
2018-03-18T19:14:41.092Z,39.40
2018-03-18T19:17:09.316Z,38.40
2018-03-18T19:19:37.474Z,38.70
2018-03-18T19:22:05.571Z,38.40
2018-03-18T19:24:33.730Z,38.80
2018-03-18T19:27:01.891Z,39.50
2018-03-18T19:29:29.890Z,38.70
2018-03-18T19:31:58.341Z,38.70
2018-03-18T19:34:26.419Z,38.90
2018-03-18T19:36:54.402Z,38.40
2018-03-18T19:39:22.451Z,39.30
2018-03-18T19:41:50.338Z,39.30
2018-03-18T19:44:18.434Z,39.50
2018-03-18T19:46:47.395Z,39.20
2018-03-18T19:49:16.371Z,39.80
2018-03-18T19:51:45.396Z,39.10
2018-03-18T19:54:13.413Z,39.00
2018-03-18T19:56:41.314Z,39.70
2018-03-18T19:59:10.002Z,39.60
2018-03-18T20:01:38.482Z,39.60
2018-03-18T20:04:06.354Z,40.30
2018-03-18T20:06:35.122Z,40.10
2018-03-18T20:09:03.089Z,40.10
2018-03-18T20:11:31.202Z,38.90
2018-03-18T20:13:59.970Z,40.90
2018-03-18T20:16:27.938Z,40.90
2018-03-18T20:18:57.730Z,40.20
2018-03-18T20:21:25.809Z,40.20
2018-03-18T20:23:54.020Z,39.40
2018-03-18T20:26:22.914Z,40.40
2018-03-18T20:28:51.783Z,40.70
2018-03-18T20:31:19.955Z,40.60
2018-03-18T20:33:47.818Z,40.70
2018-03-18T20:36:17.938Z,40.10
2018-03-18T20:38:46.723Z,40.30
2018-03-18T20:41:15.498Z,40.40
2018-03-18T20:43:43.783Z,40.10
2018-03-18T20:46:13.699Z,40.40
2018-03-18T20:48:43.395Z,40.20
2018-03-18T20:51:11.570Z,40.20
2018-03-18T20:53:41.393Z,41.20
2018-03-18T20:56:09.618Z,41.20
2018-03-18T20:58:37.842Z,40.60
2018-03-18T21:01:06.514Z,40.70
2018-03-18T21:03:34.523Z,40.70
2018-03-18T21:06:03.170Z,40.40
2018-03-18T21:08:31.490Z,40.30
2018-03-18T21:11:00.595Z,41.40
2018-03-18T21:13:28.514Z,40.80
2018-03-18T21:15:56.580Z,40.00
2018-03-18T21:18:24.657Z,40.60
2018-03-18T21:20:52.873Z,40.90
2018-03-18T21:23:21.771Z,41.20
2018-03-18T21:25:50.314Z,41.20
2018-03-18T21:28:18.362Z,41.60
2018-03-18T21:30:46.620Z,41.00
2018-03-18T21:33:20.635Z,40.90
2018-03-18T21:35:50.170Z,41.30
2018-03-18T21:38:18.155Z,41.30
2018-03-18T21:40:46.810Z,41.00
2018-03-18T21:43:14.891Z,40.90
2018-03-18T21:45:42.766Z,41.10
2018-03-18T21:48:11.851Z,41.40
2018-03-18T21:50:40.683Z,41.40
2018-03-18T21:53:09.019Z,41.70
2018-03-18T21:55:37.242Z,40.70
2018-03-18T21:58:05.142Z,40.90
2018-03-18T22:00:34.355Z,41.10
2018-03-18T22:03:03.023Z,40.70
2018-03-18T22:05:31.330Z,40.70
2018-03-18T22:07:59.291Z,41.80
2018-03-18T22:10:27.542Z,41.40
2018-03-18T22:12:55.530Z,41.20
2018-03-18T22:15:24.514Z,40.70
2018-03-18T22:17:52.690Z,40.60
2018-03-18T22:20:20.771Z,41.20
2018-03-18T22:22:48.730Z,40.50
2018-03-18T22:25:16.612Z,41.10
2018-03-18T22:27:46.316Z,41.20
2018-03-18T22:30:14.094Z,41.10
2018-03-18T22:32:42.874Z,41.20
2018-03-18T22:35:10.931Z,41.10
2018-03-18T22:37:39.851Z,41.20
2018-03-18T22:40:08.554Z,41.70
2018-03-18T22:42:36.570Z,41.70
2018-03-18T22:45:04.691Z,40.90
2018-03-18T22:47:32.610Z,41.80
2018-03-18T22:50:00.594Z,41.60
2018-03-18T22:52:29.563Z,41.70
2018-03-18T22:54:58.274Z,41.60
2018-03-18T22:57:26.130Z,41.70
2018-03-18T22:59:54.098Z,41.70
2018-03-18T23:02:22.236Z,41.50
2018-03-18T23:04:49.927Z,41.80
2018-03-18T23:07:17.995Z,42.90
2018-03-18T23:09:45.971Z,42.20
2018-03-18T23:12:14.164Z,41.90
2018-03-18T23:14:43.606Z,42.40
2018-03-18T23:17:11.608Z,42.30
2018-03-18T23:19:39.681Z,42.40
2018-03-18T23:22:07.679Z,42.00
2018-03-18T23:24:36.238Z,42.10
2018-03-18T23:27:04.174Z,42.10
2018-03-18T23:29:32.286Z,41.90
2018-03-18T23:32:00.529Z,42.00
2018-03-18T23:34:28.624Z,42.50
2018-03-18T23:36:56.893Z,43.00
2018-03-18T23:39:24.872Z,42.50
2018-03-18T23:41:52.633Z,42.80
2018-03-18T23:44:20.798Z,42.80
2018-03-18T23:46:48.678Z,42.10
2018-03-18T23:49:16.338Z,42.90
2018-03-18T23:51:44.270Z,43.30
2018-03-18T23:54:12.379Z,43.30
2018-03-18T23:56:40.266Z,43.30
2018-03-18T23:59:08.208Z,43.20
